sensor_id;sensor_type;location;lat;lon;timestamp;P1;durP1;ratioP1;P2;durP2;ratioP2
36327;SDS011;22354;50.012;8.264;2023-12-29T02:41:53;11.43;;;8.05;;
36327;SDS011;22354;50.012;8.264;2023-12-29T02:44:19;11.27;;;7.65;;
36327;SDS011;22354;50.012;8.264;2023-12-29T02:46:45;13.23;;;7.70;;
36327;SDS011;22354;50.012;8.264;2023-12-29T02:49:11;12.40;;;7.35;;
36327;SDS011;22354;50.012;8.264;2023-12-29T02:51:38;10.77;;;6.93;;
36327;SDS011;22354;50.012;8.264;2023-12-29T02:54:05;11.73;;;7.45;;
36327;SDS011;22354;50.012;8.264;2023-12-29T02:56:32;13.63;;;7.53;;
36327;SDS011;22354;50.012;8.264;2023-12-29T02:58:59;15.00;;;7.50;;
36327;SDS011;22354;50.012;8.264;2023-12-29T03:01:25;12.45;;;7.22;;
36327;SDS011;22354;50.012;8.264;2023-12-29T03:03:53;11.35;;;7.78;;
36327;SDS011;22354;50.012;8.264;2023-12-29T03:06:19;9.90;;;6.75;;
36327;SDS011;22354;50.012;8.264;2023-12-29T03:08:46;11.43;;;7.35;;
36327;SDS011;22354;50.012;8.264;2023-12-29T03:11:12;11.88;;;7.05;;
36327;SDS011;22354;50.012;8.264;2023-12-29T03:13:38;11.77;;;6.82;;
36327;SDS011;22354;50.012;8.264;2023-12-29T03:16:04;11.57;;;6.05;;
36327;SDS011;22354;50.012;8.264;2023-12-29T03:18:30;10.18;;;7.40;;
36327;SDS011;22354;50.012;8.264;2023-12-29T03:20:56;8.98;;;6.20;;
36327;SDS011;22354;50.012;8.264;2023-12-29T03:23:22;8.10;;;5.93;;
36327;SDS011;22354;50.012;8.264;2023-12-29T03:25:48;6.57;;;5.55;;
36327;SDS011;22354;50.012;8.264;2023-12-29T03:28:14;9.88;;;6.55;;
36327;SDS011;22354;50.012;8.264;2023-12-29T03:30:40;9.43;;;6.07;;
36327;SDS011;22354;50.012;8.264;2023-12-29T03:33:06;7.95;;;5.95;;
36327;SDS011;22354;50.012;8.264;2023-12-29T03:35:32;7.47;;;6.05;;
36327;SDS011;22354;50.012;8.264;2023-12-29T03:37:58;10.20;;;6.47;;
36327;SDS011;22354;50.012;8.264;2023-12-29T03:40:24;10.63;;;6.65;;
36327;SDS011;22354;50.012;8.264;2023-12-29T03:42:50;8.60;;;5.90;;
36327;SDS011;22354;50.012;8.264;2023-12-29T03:45:16;8.60;;;5.80;;
36327;SDS011;22354;50.012;8.264;2023-12-29T03:47:42;8.85;;;5.30;;
36327;SDS011;22354;50.012;8.264;2023-12-29T03:50:08;6.53;;;5.68;;
36327;SDS011;22354;50.012;8.264;2023-12-29T03:52:34;7.18;;;5.45;;
36327;SDS011;22354;50.012;8.264;2023-12-29T03:55:00;16.98;;;6.82;;
36327;SDS011;22354;50.012;8.264;2023-12-29T03:57:26;7.70;;;5.45;;
36327;SDS011;22354;50.012;8.264;2023-12-29T03:59:52;8.15;;;6.05;;
36327;SDS011;22354;50.012;8.264;2023-12-29T04:02:18;6.88;;;5.53;;
36327;SDS011;22354;50.012;8.264;2023-12-29T04:04:44;11.48;;;5.90;;
36327;SDS011;22354;50.012;8.264;2023-12-29T04:07:10;8.70;;;5.88;;
36327;SDS011;22354;50.012;8.264;2023-12-29T04:09:36;7.63;;;5.28;;
36327;SDS011;22354;50.012;8.264;2023-12-29T04:12:02;6.82;;;5.30;;
36327;SDS011;22354;50.012;8.264;2023-12-29T04:14:28;9.48;;;6.00;;
36327;SDS011;22354;50.012;8.264;2023-12-29T04:16:54;7.80;;;5.60;;
36327;SDS011;22354;50.012;8.264;2023-12-29T04:19:20;7.82;;;5.40;;
36327;SDS011;22354;50.012;8.264;2023-12-29T04:21:46;6.05;;;5.35;;
36327;SDS011;22354;50.012;8.264;2023-12-29T04:24:12;8.75;;;4.90;;
36327;SDS011;22354;50.012;8.264;2023-12-29T04:26:38;7.85;;;5.07;;
36327;SDS011;22354;50.012;8.264;2023-12-29T04:29:04;7.00;;;4.85;;
36327;SDS011;22354;50.012;8.264;2023-12-29T04:31:30;7.57;;;5.03;;
36327;SDS011;22354;50.012;8.264;2023-12-29T04:33:56;6.32;;;5.03;;
36327;SDS011;22354;50.012;8.264;2023-12-29T04:36:22;6.57;;;5.40;;
36327;SDS011;22354;50.012;8.264;2023-12-29T04:38:48;7.28;;;4.40;;
36327;SDS011;22354;50.012;8.264;2023-12-29T04:41:14;5.97;;;4.80;;
36327;SDS011;22354;50.012;8.264;2023-12-29T04:43:40;9.50;;;4.97;;
36327;SDS011;22354;50.012;8.264;2023-12-29T04:46:06;6.07;;;5.10;;
36327;SDS011;22354;50.012;8.264;2023-12-29T04:48:32;9.07;;;5.68;;
36327;SDS011;22354;50.012;8.264;2023-12-29T04:50:58;6.57;;;4.32;;
36327;SDS011;22354;50.012;8.264;2023-12-29T04:53:24;6.13;;;4.60;;
36327;SDS011;22354;50.012;8.264;2023-12-29T04:55:50;7.10;;;4.70;;
36327;SDS011;22354;50.012;8.264;2023-12-29T04:58:16;5.57;;;4.97;;
36327;SDS011;22354;50.012;8.264;2023-12-29T05:00:42;4.25;;;3.85;;
36327;SDS011;22354;50.012;8.264;2023-12-29T05:03:08;8.68;;;4.55;;
36327;SDS011;22354;50.012;8.264;2023-12-29T05:05:34;5.85;;;4.60;;
36327;SDS011;22354;50.012;8.264;2023-12-29T05:08:00;5.63;;;3.92;;
36327;SDS011;22354;50.012;8.264;2023-12-29T05:10:26;7.93;;;4.80;;
36327;SDS011;22354;50.012;8.264;2023-12-29T05:12:52;10.00;;;5.07;;
36327;SDS011;22354;50.012;8.264;2023-12-29T05:15:18;7.70;;;4.90;;
36327;SDS011;22354;50.012;8.264;2023-12-29T05:17:44;4.70;;;4.18;;
36327;SDS011;22354;50.012;8.264;2023-12-29T05:20:10;4.75;;;4.22;;
36327;SDS011;22354;50.012;8.264;2023-12-29T05:22:37;6.65;;;4.35;;
36327;SDS011;22354;50.012;8.264;2023-12-29T05:25:03;7.57;;;4.47;;
36327;SDS011;22354;50.012;8.264;2023-12-29T05:27:29;7.85;;;4.97;;
36327;SDS011;22354;50.012;8.264;2023-12-29T05:29:55;5.80;;;4.15;;
36327;SDS011;22354;50.012;8.264;2023-12-29T05:32:21;7.22;;;4.85;;
36327;SDS011;22354;50.012;8.264;2023-12-29T05:34:47;6.00;;;3.97;;
36327;SDS011;22354;50.012;8.264;2023-12-29T05:37:13;4.88;;;4.05;;
36327;SDS011;22354;50.012;8.264;2023-12-29T05:39:42;4.25;;;3.70;;
36327;SDS011;22354;50.012;8.264;2023-12-29T05:42:08;4.72;;;4.00;;
36327;SDS011;22354;50.012;8.264;2023-12-29T05:44:37;5.18;;;4.18;;
36327;SDS011;22354;50.012;8.264;2023-12-29T05:47:04;4.80;;;4.32;;
36327;SDS011;22354;50.012;8.264;2023-12-29T05:49:30;8.38;;;4.50;;
36327;SDS011;22354;50.012;8.264;2023-12-29T05:52:03;5.18;;;3.88;;
36327;SDS011;22354;50.012;8.264;2023-12-29T05:54:30;7.13;;;3.60;;
36327;SDS011;22354;50.012;8.264;2023-12-29T05:56:56;4.85;;;3.97;;
36327;SDS011;22354;50.012;8.264;2023-12-29T05:59:21;4.90;;;4.03;;
36327;SDS011;22354;50.012;8.264;2023-12-29T06:01:47;5.82;;;4.05;;
36327;SDS011;22354;50.012;8.264;2023-12-29T06:04:13;5.25;;;4.40;;
36327;SDS011;22354;50.012;8.264;2023-12-29T06:06:41;6.45;;;4.13;;
36327;SDS011;22354;50.012;8.264;2023-12-29T06:09:08;5.50;;;4.10;;
36327;SDS011;22354;50.012;8.264;2023-12-29T06:11:35;4.53;;;3.83;;
36327;SDS011;22354;50.012;8.264;2023-12-29T06:14:01;7.63;;;4.13;;
36327;SDS011;22354;50.012;8.264;2023-12-29T06:16:27;4.43;;;3.65;;
36327;SDS011;22354;50.012;8.264;2023-12-29T06:18:54;7.28;;;4.00;;
36327;SDS011;22354;50.012;8.264;2023-12-29T06:21:20;4.20;;;3.65;;
36327;SDS011;22354;50.012;8.264;2023-12-29T06:23:47;5.15;;;4.07;;
36327;SDS011;22354;50.012;8.264;2023-12-29T06:26:16;5.60;;;3.67;;
36327;SDS011;22354;50.012;8.264;2023-12-29T06:28:43;4.82;;;3.95;;
36327;SDS011;22354;50.012;8.264;2023-12-29T06:31:09;4.80;;;3.80;;
36327;SDS011;22354;50.012;8.264;2023-12-29T06:33:35;5.47;;;3.38;;
36327;SDS011;22354;50.012;8.264;2023-12-29T06:36:01;4.25;;;3.78;;
36327;SDS011;22354;50.012;8.264;2023-12-29T06:38:27;4.15;;;3.67;;
36327;SDS011;22354;50.012;8.264;2023-12-29T06:40:53;4.57;;;3.75;;
36327;SDS011;22354;50.012;8.264;2023-12-29T06:43:20;4.25;;;3.85;;
36327;SDS011;22354;50.012;8.264;2023-12-29T06:45:46;4.85;;;3.65;;
36327;SDS011;22354;50.012;8.264;2023-12-29T06:48:15;4.25;;;3.85;;
36327;SDS011;22354;50.012;8.264;2023-12-29T06:50:41;3.92;;;3.42;;
36327;SDS011;22354;50.012;8.264;2023-12-29T06:53:07;6.43;;;3.95;;
36327;SDS011;22354;50.012;8.264;2023-12-29T06:55:33;3.67;;;3.10;;
36327;SDS011;22354;50.012;8.264;2023-12-29T06:57:59;4.32;;;3.30;;
36327;SDS011;22354;50.012;8.264;2023-12-29T07:00:25;3.67;;;3.22;;
36327;SDS011;22354;50.012;8.264;2023-12-29T07:02:52;5.57;;;3.40;;
36327;SDS011;22354;50.012;8.264;2023-12-29T07:05:18;4.13;;;3.80;;
36327;SDS011;22354;50.012;8.264;2023-12-29T07:07:44;3.25;;;2.95;;
36327;SDS011;22354;50.012;8.264;2023-12-29T07:10:13;4.03;;;3.42;;
36327;SDS011;22354;50.012;8.264;2023-12-29T07:12:40;4.85;;;3.70;;
36327;SDS011;22354;50.012;8.264;2023-12-29T07:15:06;3.22;;;2.92;;
36327;SDS011;22354;50.012;8.264;2023-12-29T07:17:32;3.80;;;3.35;;
36327;SDS011;22354;50.012;8.264;2023-12-29T07:19:59;3.95;;;3.53;;
36327;SDS011;22354;50.012;8.264;2023-12-29T07:22:25;3.65;;;3.30;;
36327;SDS011;22354;50.012;8.264;2023-12-29T07:24:51;3.55;;;3.28;;
36327;SDS011;22354;50.012;8.264;2023-12-29T07:27:18;3.30;;;3.00;;
36327;SDS011;22354;50.012;8.264;2023-12-29T07:29:46;3.70;;;3.08;;
36327;SDS011;22354;50.012;8.264;2023-12-29T07:32:13;6.20;;;3.55;;
36327;SDS011;22354;50.012;8.264;2023-12-29T07:34:39;4.10;;;3.20;;
36327;SDS011;22354;50.012;8.264;2023-12-29T07:37:06;3.92;;;3.22;;
36327;SDS011;22354;50.012;8.264;2023-12-29T07:39:32;3.05;;;2.85;;
36327;SDS011;22354;50.012;8.264;2023-12-29T07:41:58;5.03;;;3.38;;
36327;SDS011;22354;50.012;8.264;2023-12-29T07:44:24;3.53;;;2.90;;
36327;SDS011;22354;50.012;8.264;2023-12-29T07:46:50;3.38;;;3.08;;
36327;SDS011;22354;50.012;8.264;2023-12-29T07:49:16;3.03;;;2.67;;
36327;SDS011;22354;50.012;8.264;2023-12-29T07:51:42;3.50;;;3.17;;
36327;SDS011;22354;50.012;8.264;2023-12-29T07:54:09;3.95;;;3.47;;
36327;SDS011;22354;50.012;8.264;2023-12-29T07:56:35;3.38;;;3.08;;
36327;SDS011;22354;50.012;8.264;2023-12-29T07:59:02;6.10;;;3.28;;
36327;SDS011;22354;50.012;8.264;2023-12-29T08:01:28;6.03;;;3.90;;
36327;SDS011;22354;50.012;8.264;2023-12-29T08:03:55;6.07;;;4.15;;
36327;SDS011;22354;50.012;8.264;2023-12-29T08:06:21;6.20;;;3.75;;
36327;SDS011;22354;50.012;8.264;2023-12-29T08:08:48;5.07;;;3.33;;
36327;SDS011;22354;50.012;8.264;2023-12-29T08:11:17;4.30;;;3.65;;
36327;SDS011;22354;50.012;8.264;2023-12-29T08:13:43;4.82;;;3.40;;
36327;SDS011;22354;50.012;8.264;2023-12-29T08:16:10;4.38;;;3.95;;
36327;SDS011;22354;50.012;8.264;2023-12-29T08:18:36;4.93;;;3.65;;
36327;SDS011;22354;50.012;8.264;2023-12-29T08:21:02;5.78;;;4.03;;
36327;SDS011;22354;50.012;8.264;2023-12-29T08:23:28;4.85;;;3.70;;
36327;SDS011;22354;50.012;8.264;2023-12-29T08:25:57;7.07;;;3.92;;
36327;SDS011;22354;50.012;8.264;2023-12-29T08:28:24;4.25;;;3.67;;
36327;SDS011;22354;50.012;8.264;2023-12-29T08:30:50;3.95;;;3.55;;
36327;SDS011;22354;50.012;8.264;2023-12-29T08:33:16;5.32;;;3.90;;
36327;SDS011;22354;50.012;8.264;2023-12-29T08:35:43;5.70;;;4.00;;
36327;SDS011;22354;50.012;8.264;2023-12-29T08:38:11;6.88;;;3.88;;
36327;SDS011;22354;50.012;8.264;2023-12-29T08:40:37;7.95;;;3.72;;
36327;SDS011;22354;50.012;8.264;2023-12-29T08:43:03;6.25;;;4.22;;
36327;SDS011;22354;50.012;8.264;2023-12-29T08:45:29;3.63;;;3.33;;
36327;SDS011;22354;50.012;8.264;2023-12-29T08:47:55;4.97;;;3.25;;
36327;SDS011;22354;50.012;8.264;2023-12-29T08:50:21;3.67;;;3.35;;
36327;SDS011;22354;50.012;8.264;2023-12-29T08:52:47;4.10;;;3.45;;
36327;SDS011;22354;50.012;8.264;2023-12-29T08:55:14;4.72;;;3.83;;
36327;SDS011;22354;50.012;8.264;2023-12-29T08:57:40;6.95;;;3.33;;
36327;SDS011;22354;50.012;8.264;2023-12-29T09:00:06;5.65;;;3.50;;
36327;SDS011;22354;50.012;8.264;2023-12-29T09:02:34;5.75;;;3.80;;
36327;SDS011;22354;50.012;8.264;2023-12-29T09:05:00;3.55;;;3.10;;
36327;SDS011;22354;50.012;8.264;2023-12-29T09:07:26;4.93;;;3.42;;
36327;SDS011;22354;50.012;8.264;2023-12-29T09:09:53;4.55;;;3.05;;
36327;SDS011;22354;50.012;8.264;2023-12-29T09:12:19;5.32;;;3.35;;
36327;SDS011;22354;50.012;8.264;2023-12-29T09:14:45;4.95;;;3.13;;
36327;SDS011;22354;50.012;8.264;2023-12-29T09:17:12;5.80;;;3.42;;
36327;SDS011;22354;50.012;8.264;2023-12-29T09:19:38;7.63;;;3.25;;
36327;SDS011;22354;50.012;8.264;2023-12-29T09:22:04;3.85;;;3.20;;
36327;SDS011;22354;50.012;8.264;2023-12-29T09:24:30;4.45;;;3.45;;
36327;SDS011;22354;50.012;8.264;2023-12-29T09:26:56;5.07;;;3.10;;
36327;SDS011;22354;50.012;8.264;2023-12-29T09:29:22;5.20;;;3.08;;
36327;SDS011;22354;50.012;8.264;2023-12-29T09:31:48;4.65;;;2.70;;
36327;SDS011;22354;50.012;8.264;2023-12-29T09:34:14;4.22;;;3.15;;
36327;SDS011;22354;50.012;8.264;2023-12-29T09:36:41;2.95;;;2.30;;
36327;SDS011;22354;50.012;8.264;2023-12-29T09:39:07;3.50;;;2.80;;
36327;SDS011;22354;50.012;8.264;2023-12-29T09:41:33;4.18;;;3.38;;
36327;SDS011;22354;50.012;8.264;2023-12-29T09:44:01;3.38;;;3.03;;
36327;SDS011;22354;50.012;8.264;2023-12-29T09:46:27;6.05;;;3.45;;
36327;SDS011;22354;50.012;8.264;2023-12-29T09:48:57;6.15;;;3.03;;
36327;SDS011;22354;50.012;8.264;2023-12-29T09:51:27;3.97;;;2.90;;
36327;SDS011;22354;50.012;8.264;2023-12-29T09:53:55;6.88;;;3.10;;
36327;SDS011;22354;50.012;8.264;2023-12-29T09:56:23;4.13;;;2.42;;
36327;SDS011;22354;50.012;8.264;2023-12-29T09:58:49;3.40;;;2.70;;
36327;SDS011;22354;50.012;8.264;2023-12-29T10:01:17;8.40;;;3.25;;
36327;SDS011;22354;50.012;8.264;2023-12-29T10:03:44;3.40;;;2.80;;
36327;SDS011;22354;50.012;8.264;2023-12-29T10:06:10;3.30;;;2.80;;
36327;SDS011;22354;50.012;8.264;2023-12-29T10:08:38;3.33;;;2.65;;
36327;SDS011;22354;50.012;8.264;2023-12-29T10:11:08;4.50;;;3.00;;
36327;SDS011;22354;50.012;8.264;2023-12-29T10:13:36;4.70;;;2.60;;
36327;SDS011;22354;50.012;8.264;2023-12-29T10:19:10;3.35;;;2.70;;
36327;SDS011;22354;50.012;8.264;2023-12-29T10:22:18;6.00;;;2.58;;
36327;SDS011;22354;50.012;8.264;2023-12-29T10:24:27;3.20;;;2.70;;
36327;SDS011;22354;50.012;8.264;2023-12-29T10:26:53;4.97;;;2.80;;
36327;SDS011;22354;50.012;8.264;2023-12-29T10:29:20;5.28;;;2.58;;
36327;SDS011;22354;50.012;8.264;2023-12-29T10:31:47;3.15;;;2.40;;
36327;SDS011;22354;50.012;8.264;2023-12-29T10:34:20;4.90;;;2.53;;
36327;SDS011;22354;50.012;8.264;2023-12-29T10:36:53;4.32;;;2.30;;
36327;SDS011;22354;50.012;8.264;2023-12-29T10:39:19;12.10;;;2.90;;
36327;SDS011;22354;50.012;8.264;2023-12-29T10:41:46;6.40;;;2.60;;
36327;SDS011;22354;50.012;8.264;2023-12-29T10:44:12;5.13;;;2.22;;
36327;SDS011;22354;50.012;8.264;2023-12-29T10:46:38;7.47;;;2.55;;
36327;SDS011;22354;50.012;8.264;2023-12-29T10:49:13;3.10;;;2.38;;
36327;SDS011;22354;50.012;8.264;2023-12-29T10:51:39;6.32;;;2.55;;
36327;SDS011;22354;50.012;8.264;2023-12-29T10:54:06;5.05;;;2.35;;
36327;SDS011;22354;50.012;8.264;2023-12-29T10:56:32;7.03;;;2.50;;
36327;SDS011;22354;50.012;8.264;2023-12-29T10:58:59;7.63;;;2.72;;
36327;SDS011;22354;50.012;8.264;2023-12-29T11:01:25;9.68;;;2.60;;
36327;SDS011;22354;50.012;8.264;2023-12-29T11:04:01;4.50;;;2.25;;
36327;SDS011;22354;50.012;8.264;2023-12-29T11:06:28;3.97;;;2.50;;
36327;SDS011;22354;50.012;8.264;2023-12-29T11:08:55;2.20;;;2.08;;
36327;SDS011;22354;50.012;8.264;2023-12-29T11:11:22;9.23;;;1.92;;
36327;SDS011;22354;50.012;8.264;2023-12-29T11:13:49;2.45;;;2.13;;
36327;SDS011;22354;50.012;8.264;2023-12-29T11:16:15;7.85;;;2.08;;
36327;SDS011;22354;50.012;8.264;2023-12-29T11:18:43;4.78;;;2.30;;
36327;SDS011;22354;50.012;8.264;2023-12-29T11:21:10;4.20;;;1.58;;
36327;SDS011;22354;50.012;8.264;2023-12-29T11:23:37;7.65;;;2.10;;
36327;SDS011;22354;50.012;8.264;2023-12-29T11:26:04;3.45;;;2.10;;
36327;SDS011;22354;50.012;8.264;2023-12-29T11:28:30;5.10;;;2.13;;
36327;SDS011;22354;50.012;8.264;2023-12-29T11:30:56;3.85;;;1.95;;
36327;SDS011;22354;50.012;8.264;2023-12-29T11:33:31;2.83;;;2.00;;
36327;SDS011;22354;50.012;8.264;2023-12-29T11:36:20;1.88;;;1.70;;
36327;SDS011;22354;50.012;8.264;2023-12-29T11:43:56;6.80;;;2.45;;
36327;SDS011;22354;50.012;8.264;2023-12-29T11:49:04;4.65;;;2.17;;
36327;SDS011;22354;50.012;8.264;2023-12-29T11:51:40;4.82;;;2.38;;
36327;SDS011;22354;50.012;8.264;2023-12-29T11:54:08;5.05;;;1.98;;
36327;SDS011;22354;50.012;8.264;2023-12-29T11:56:38;4.32;;;2.00;;
36327;SDS011;22354;50.012;8.264;2023-12-29T11:59:22;7.53;;;2.47;;
36327;SDS011;22354;50.012;8.264;2023-12-29T12:04:37;5.60;;;2.53;;
36327;SDS011;22354;50.012;8.264;2023-12-29T12:07:07;3.97;;;2.20;;
36327;SDS011;22354;50.012;8.264;2023-12-29T12:09:34;7.13;;;2.15;;
36327;SDS011;22354;50.012;8.264;2023-12-29T12:12:03;3.97;;;2.47;;
36327;SDS011;22354;50.012;8.264;2023-12-29T12:14:45;4.95;;;2.30;;
36327;SDS011;22354;50.012;8.264;2023-12-29T12:17:26;4.00;;;2.53;;
36327;SDS011;22354;50.012;8.264;2023-12-29T12:19:53;7.00;;;2.50;;
36327;SDS011;22354;50.012;8.264;2023-12-29T12:22:23;7.25;;;2.55;;
36327;SDS011;22354;50.012;8.264;2023-12-29T12:24:55;3.85;;;2.22;;
36327;SDS011;22354;50.012;8.264;2023-12-29T12:27:21;6.13;;;2.15;;
36327;SDS011;22354;50.012;8.264;2023-12-29T12:29:52;10.15;;;2.58;;
36327;SDS011;22354;50.012;8.264;2023-12-29T12:32:21;3.80;;;1.92;;
36327;SDS011;22354;50.012;8.264;2023-12-29T12:34:47;7.18;;;2.42;;
36327;SDS011;22354;50.012;8.264;2023-12-29T12:37:18;3.55;;;2.30;;
36327;SDS011;22354;50.012;8.264;2023-12-29T12:39:44;2.38;;;2.10;;
36327;SDS011;22354;50.012;8.264;2023-12-29T12:42:10;6.03;;;2.25;;
36327;SDS011;22354;50.012;8.264;2023-12-29T12:44:40;20.50;;;2.40;;
36327;SDS011;22354;50.012;8.264;2023-12-29T12:47:08;9.20;;;2.42;;
36327;SDS011;22354;50.012;8.264;2023-12-29T12:49:34;4.95;;;2.10;;
36327;SDS011;22354;50.012;8.264;2023-12-29T12:52:01;7.25;;;2.28;;
36327;SDS011;22354;50.012;8.264;2023-12-29T12:54:27;4.43;;;2.22;;
36327;SDS011;22354;50.012;8.264;2023-12-29T12:56:54;8.98;;;1.95;;
36327;SDS011;22354;50.012;8.264;2023-12-29T12:59:20;3.10;;;2.17;;
36327;SDS011;22354;50.012;8.264;2023-12-29T13:01:46;5.47;;;2.17;;
36327;SDS011;22354;50.012;8.264;2023-12-29T13:04:13;5.57;;;2.08;;
36327;SDS011;22354;50.012;8.264;2023-12-29T13:06:40;4.00;;;2.17;;
36327;SDS011;22354;50.012;8.264;2023-12-29T13:09:07;3.75;;;2.38;;
36327;SDS011;22354;50.012;8.264;2023-12-29T13:11:36;8.95;;;2.03;;
36327;SDS011;22354;50.012;8.264;2023-12-29T13:14:02;2.70;;;2.10;;
36327;SDS011;22354;50.012;8.264;2023-12-29T13:18:56;6.72;;;2.13;;
36327;SDS011;22354;50.012;8.264;2023-12-29T13:21:22;6.05;;;1.92;;
36327;SDS011;22354;50.012;8.264;2023-12-29T13:23:48;4.28;;;2.08;;
36327;SDS011;22354;50.012;8.264;2023-12-29T13:26:14;12.85;;;2.17;;
36327;SDS011;22354;50.012;8.264;2023-12-29T13:28:44;3.28;;;1.83;;
36327;SDS011;22354;50.012;8.264;2023-12-29T13:31:11;4.22;;;1.70;;
36327;SDS011;22354;50.012;8.264;2023-12-29T13:38:57;2.53;;;1.90;;
36327;SDS011;22354;50.012;8.264;2023-12-29T13:41:24;7.20;;;2.08;;
36327;SDS011;22354;50.012;8.264;2023-12-29T13:43:52;7.47;;;2.10;;
36327;SDS011;22354;50.012;8.264;2023-12-29T13:46:19;2.75;;;2.05;;
36327;SDS011;22354;50.012;8.264;2023-12-29T13:48:46;6.00;;;1.83;;
36327;SDS011;22354;50.012;8.264;2023-12-29T13:51:16;3.33;;;2.00;;
36327;SDS011;22354;50.012;8.264;2023-12-29T13:53:42;8.13;;;2.10;;
36327;SDS011;22354;50.012;8.264;2023-12-29T13:56:09;2.28;;;1.48;;
36327;SDS011;22354;50.012;8.264;2023-12-29T13:58:35;2.25;;;1.70;;
36327;SDS011;22354;50.012;8.264;2023-12-29T14:01:01;3.50;;;1.90;;
36327;SDS011;22354;50.012;8.264;2023-12-29T14:03:34;3.25;;;1.90;;
36327;SDS011;22354;50.012;8.264;2023-12-29T14:06:04;3.53;;;2.10;;
36327;SDS011;22354;50.012;8.264;2023-12-29T14:08:45;1.55;;;1.45;;
36327;SDS011;22354;50.012;8.264;2023-12-29T14:11:11;3.03;;;1.98;;
36327;SDS011;22354;50.012;8.264;2023-12-29T14:13:46;2.75;;;2.00;;
36327;SDS011;22354;50.012;8.264;2023-12-29T14:16:15;2.72;;;1.92;;
36327;SDS011;22354;50.012;8.264;2023-12-29T14:26:24;8.20;;;2.17;;
36327;SDS011;22354;50.012;8.264;2023-12-29T14:29:06;3.47;;;1.75;;
36327;SDS011;22354;50.012;8.264;2023-12-29T14:31:41;2.65;;;1.92;;
36327;SDS011;22354;50.012;8.264;2023-12-29T14:34:07;9.98;;;1.52;;
36327;SDS011;22354;50.012;8.264;2023-12-29T14:36:34;11.23;;;2.15;;
36327;SDS011;22354;50.012;8.264;2023-12-29T14:39:01;4.88;;;1.98;;
36327;SDS011;22354;50.012;8.264;2023-12-29T14:41:28;3.30;;;1.73;;
36327;SDS011;22354;50.012;8.264;2023-12-29T14:43:54;4.50;;;1.65;;
36327;SDS011;22354;50.012;8.264;2023-12-29T14:46:20;4.03;;;1.60;;
36327;SDS011;22354;50.012;8.264;2023-12-29T14:48:46;2.08;;;1.48;;
36327;SDS011;22354;50.012;8.264;2023-12-29T14:51:13;4.18;;;1.50;;
36327;SDS011;22354;50.012;8.264;2023-12-29T14:53:39;3.50;;;2.00;;
36327;SDS011;22354;50.012;8.264;2023-12-29T14:56:05;6.20;;;2.10;;
36327;SDS011;22354;50.012;8.264;2023-12-29T14:58:32;1.55;;;1.42;;
36327;SDS011;22354;50.012;8.264;2023-12-29T15:00:58;1.83;;;1.45;;
36327;SDS011;22354;50.012;8.264;2023-12-29T15:03:24;2.55;;;1.85;;
36327;SDS011;22354;50.012;8.264;2023-12-29T15:05:51;2.60;;;1.75;;
36327;SDS011;22354;50.012;8.264;2023-12-29T15:08:17;2.92;;;1.80;;
36327;SDS011;22354;50.012;8.264;2023-12-29T15:10:44;3.53;;;1.50;;
36327;SDS011;22354;50.012;8.264;2023-12-29T15:13:10;3.58;;;1.60;;
36327;SDS011;22354;50.012;8.264;2023-12-29T15:15:37;3.70;;;1.95;;
36327;SDS011;22354;50.012;8.264;2023-12-29T15:18:03;2.90;;;2.00;;
36327;SDS011;22354;50.012;8.264;2023-12-29T15:20:29;3.00;;;1.98;;
36327;SDS011;22354;50.012;8.264;2023-12-29T15:22:56;2.55;;;1.60;;
36327;SDS011;22354;50.012;8.264;2023-12-29T15:25:24;2.63;;;1.40;;
36327;SDS011;22354;50.012;8.264;2023-12-29T15:27:52;2.80;;;1.48;;
36327;SDS011;22354;50.012;8.264;2023-12-29T15:30:18;5.20;;;1.90;;
36327;SDS011;22354;50.012;8.264;2023-12-29T15:32:44;1.98;;;1.23;;
36327;SDS011;22354;50.012;8.264;2023-12-29T15:35:10;5.03;;;1.60;;
36327;SDS011;22354;50.012;8.264;2023-12-29T15:37:37;2.45;;;1.58;;
36327;SDS011;22354;50.012;8.264;2023-12-29T15:40:03;2.08;;;1.80;;
36327;SDS011;22354;50.012;8.264;2023-12-29T15:42:29;3.20;;;1.65;;
36327;SDS011;22354;50.012;8.264;2023-12-29T15:44:56;4.32;;;1.15;;
36327;SDS011;22354;50.012;8.264;2023-12-29T15:47:22;2.78;;;1.70;;
36327;SDS011;22354;50.012;8.264;2023-12-29T15:49:48;1.23;;;1.20;;
36327;SDS011;22354;50.012;8.264;2023-12-29T15:52:14;1.50;;;1.40;;
36327;SDS011;22354;50.012;8.264;2023-12-29T15:54:40;2.45;;;1.55;;
36327;SDS011;22354;50.012;8.264;2023-12-29T15:57:06;1.35;;;1.23;;
36327;SDS011;22354;50.012;8.264;2023-12-29T15:59:36;1.45;;;1.30;;
36327;SDS011;22354;50.012;8.264;2023-12-29T16:02:02;2.10;;;1.60;;
36327;SDS011;22354;50.012;8.264;2023-12-29T16:04:29;1.33;;;1.25;;
36327;SDS011;22354;50.012;8.264;2023-12-29T16:06:55;3.47;;;1.60;;
36327;SDS011;22354;50.012;8.264;2023-12-29T16:09:21;3.25;;;1.67;;
36327;SDS011;22354;50.012;8.264;2023-12-29T16:11:47;1.42;;;1.33;;
36327;SDS011;22354;50.012;8.264;2023-12-29T16:14:15;1.83;;;1.35;;
36327;SDS011;22354;50.012;8.264;2023-12-29T16:16:42;4.03;;;1.48;;
36327;SDS011;22354;50.012;8.264;2023-12-29T16:19:08;2.85;;;1.42;;
36327;SDS011;22354;50.012;8.264;2023-12-29T16:21:35;1.40;;;1.30;;
36327;SDS011;22354;50.012;8.264;2023-12-29T16:24:02;2.10;;;1.60;;
36327;SDS011;22354;50.012;8.264;2023-12-29T16:26:28;3.90;;;1.42;;
36327;SDS011;22354;50.012;8.264;2023-12-29T16:28:54;4.28;;;1.67;;
36327;SDS011;22354;50.012;8.264;2023-12-29T16:31:21;2.10;;;1.75;;
36327;SDS011;22354;50.012;8.264;2023-12-29T16:33:47;1.65;;;1.40;;
36327;SDS011;22354;50.012;8.264;2023-12-29T16:36:13;5.90;;;1.42;;
36327;SDS011;22354;50.012;8.264;2023-12-29T16:38:49;2.17;;;1.45;;
36327;SDS011;22354;50.012;8.264;2023-12-29T16:41:16;1.42;;;1.30;;
36327;SDS011;22354;50.012;8.264;2023-12-29T16:43:42;4.40;;;1.80;;
36327;SDS011;22354;50.012;8.264;2023-12-29T16:46:09;4.72;;;1.60;;
36327;SDS011;22354;50.012;8.264;2023-12-29T16:48:35;2.80;;;1.50;;
36327;SDS011;22354;50.012;8.264;2023-12-29T16:51:01;1.95;;;1.73;;
36327;SDS011;22354;50.012;8.264;2023-12-29T16:53:28;2.03;;;1.20;;
